Time;durP1;ratioP1;P1;durP2;ratioP2;P2;SDS_P1;SDS_P2;PMS_P1;PMS_P2;Temp;Humidity;BMP_temperature;BMP_pressure;BME280_temperature;BME280_humidity;BME280_pressure;Samples;Min_cycle;Max_cycle;Signal;HPM_P1;HPM_P2
2022/03/26 00:00:03;;;;;;;20.25;9.35;;;;;;;5.71;40.77;95639.69;5013502;28;20136;-71
2022/03/26 00:02:29;;;;;;;31.35;13.68;;;;;;;5.66;41.40;95651.97;5029803;28;20033;-71
2022/03/26 00:04:54;;;;;;;20.02;10.82;;;;;;;5.55;41.97;95651.69;5031038;28;20036;-71
2022/03/26 00:07:20;;;;;;;19.42;9.90;;;;;;;5.57;41.56;95658.44;5029599;28;20034;-71
2022/03/26 00:09:46;;;;;;;20.65;9.30;;;;;;;5.47;42.17;95656.38;5045893;28;20036;-71
2022/03/26 00:12:11;;;;;;;17.75;9.43;;;;;;;5.44;41.71;95659.94;5032880;28;20041;-71
2022/03/26 00:14:37;;;;;;;19.75;9.18;;;;;;;5.41;41.79;95664.41;5032952;28;20241;-71
2022/03/26 00:17:02;;;;;;;17.60;9.00;;;;;;;5.36;41.92;95664.63;5050704;28;20044;-71
2022/03/26 00:19:28;;;;;;;18.48;9.10;;;;;;;5.33;42.34;95664.78;5049469;28;20147;-71
2022/03/26 00:21:53;;;;;;;17.10;9.68;;;;;;;5.36;42.34;95664.63;5016394;28;20065;-71
2022/03/26 00:24:19;;;;;;;19.02;9.18;;;;;;;5.30;42.63;95668.34;5050697;28;20411;-71
2022/03/26 00:26:44;;;;;;;17.27;8.50;;;;;;;5.24;42.70;95665.25;5033021;28;20040;-71
2022/03/26 00:29:10;;;;;;;16.48;8.88;;;;;;;5.14;43.02;95668.25;5049486;28;20044;-71
2022/03/26 00:31:37;;;;;;;19.70;8.88;;;;;;;5.10;42.83;95677.03;5032888;28;20033;-71
2022/03/26 00:34:04;;;;;;;14.52;8.93;;;;;;;5.09;43.04;95670.19;5049350;28;20037;-71
2022/03/26 00:36:30;;;;;;;24.88;10.02;;;;;;;5.09;42.29;95670.19;5033067;28;20070;-71
2022/03/26 00:38:56;;;;;;;19.42;9.68;;;;;;;4.99;43.22;95663.84;5049358;28;20075;-71
2022/03/26 00:41:23;;;;;;;19.13;9.40;;;;;;;5.03;43.21;95667.91;5050865;28;20036;-71
2022/03/26 00:43:48;;;;;;;19.98;8.68;;;;;;;5.05;43.30;95663.53;5035374;28;20033;-71
2022/03/26 00:46:13;;;;;;;21.85;9.23;;;;;;;4.97;43.25;95657.91;5036809;28;20396;-71
2022/03/26 00:48:39;;;;;;;13.90;8.48;;;;;;;4.98;43.46;95662.16;5036713;28;20037;-71
2022/03/26 00:51:04;;;;;;;17.35;8.63;;;;;;;5.01;43.44;95674.03;5053268;28;20059;-71
2022/03/26 00:53:30;;;;;;;18.42;9.25;;;;;;;5.02;43.84;95675.72;5054399;28;20033;-71
2022/03/26 00:55:55;;;;;;;22.75;9.40;;;;;;;4.93;43.66;95672.69;5054644;28;20395;-71
2022/03/26 00:58:21;;;;;;;18.85;9.40;;;;;;;4.79;44.09;95675.06;5036483;28;20044;-71
2022/03/26 01:00:46;;;;;;;18.33;9.10;;;;;;;4.81;44.50;95673.22;5036543;28;20036;-71
2022/03/26 01:03:12;;;;;;;22.02;9.13;;;;;;;4.67;44.41;95671.28;5036625;28;20041;-71
2022/03/26 01:05:38;;;;;;;19.77;8.98;;;;;;;4.61;44.82;95681.06;5036345;28;20044;-71
2022/03/26 01:08:04;;;;;;;16.40;8.98;;;;;;;4.67;44.55;95680.75;5018919;28;20517;-71
2022/03/26 01:10:29;;;;;;;19.88;8.65;;;;;;;4.67;44.47;95681.59;5032899;28;20128;-71
2022/03/26 01:12:55;;;;;;;15.60;8.70;;;;;;;4.61;44.51;95676.72;5033970;28;20033;-71
2022/03/26 01:15:20;;;;;;;18.42;9.32;;;;;;;4.63;44.53;95681.81;5032952;28;20029;-71
2022/03/26 01:17:46;;;;;;;15.95;8.75;;;;;;;4.64;44.48;95686.06;5032581;28;20415;-71
2022/03/26 01:20:11;;;;;;;19.95;9.48;;;;;;;4.62;44.56;95685.28;5034108;28;20045;-71
2022/03/26 01:22:37;;;;;;;14.93;7.85;;;;;;;4.55;44.20;95671.03;5032676;28;20068;-71
2022/03/26 01:25:04;;;;;;;16.88;8.40;;;;;;;4.64;44.31;95697.19;5032988;28;20029;-72
2022/03/26 01:27:29;;;;;;;17.83;9.02;;;;;;;4.61;44.92;95704.22;4999820;28;20034;-71
2022/03/26 01:29:55;;;;;;;18.88;9.13;;;;;;;4.54;44.57;95705.38;5032631;28;20392;-71
2022/03/26 01:32:20;;;;;;;18.65;8.25;;;;;;;4.60;44.42;95702.56;5033659;28;20033;-71
2022/03/26 01:34:46;;;;;;;21.20;8.57;;;;;;;4.51;45.06;95706.34;5015970;28;20033;-71
2022/03/26 01:37:12;;;;;;;15.98;8.85;;;;;;;4.53;44.56;95698.56;5032298;28;20029;-71
2022/03/26 01:39:37;;;;;;;15.73;8.35;;;;;;;4.54;44.71;95705.38;5033550;28;20034;-71
2022/03/26 01:42:04;;;;;;;16.13;8.43;;;;;;;4.53;44.42;95696.84;5032307;28;20491;-71
2022/03/26 01:44:29;;;;;;;18.88;8.40;;;;;;;4.53;44.70;95698.56;5032203;28;20055;-71
2022/03/26 01:46:55;;;;;;;15.48;8.57;;;;;;;4.41;44.45;95695.66;5032227;28;20030;-71
2022/03/26 01:49:20;;;;;;;19.73;8.80;;;;;;;4.45;44.47;95704.88;5032227;28;20037;-72
2022/03/26 01:51:47;;;;;;;17.60;8.40;;;;;;;4.39;44.47;95714.63;5031904;28;20120;-71
2022/03/26 01:54:13;;;;;;;19.52;8.23;;;;;;;4.37;44.76;95712.09;5031578;28;20092;-71
2022/03/26 01:56:38;;;;;;;20.67;8.88;;;;;;;4.31;44.65;95709.81;5031899;28;20025;-71
2022/03/26 01:59:05;;;;;;;19.50;7.85;;;;;;;4.33;44.89;95713.16;5015446;28;20491;-72
2022/03/26 02:01:34;;;;;;;17.50;8.40;;;;;;;4.37;44.94;95714.69;5015588;28;20120;-71
2022/03/26 02:04:03;;;;;;;16.52;8.30;;;;;;;4.23;44.73;95706.75;5015827;28;20033;-71
2022/03/26 02:06:31;;;;;;;17.88;8.52;;;;;;;4.24;44.71;95708.44;5032102;28;20029;-71
2022/03/26 02:08:57;;;;;;;16.50;8.63;;;;;;;4.19;45.16;95720.66;5040010;28;20036;-71
2022/03/26 02:11:22;;;;;;;17.45;8.88;;;;;;;4.13;45.11;95702.91;5053209;28;20033;-71
2022/03/26 02:13:52;;;;;;;15.07;8.80;;;;;;;4.14;44.96;95715.69;5051697;28;20063;-71
2022/03/26 02:16:17;;;;;;;17.10;8.55;;;;;;;4.04;45.94;95709.28;5053176;28;20039;-71
2022/03/26 02:18:43;;;;;;;16.00;8.45;;;;;;;4.08;45.49;95722.84;5034816;28;20462;-71
2022/03/26 02:21:09;;;;;;;17.08;8.30;;;;;;;3.94;46.49;95719.13;5035068;28;20029;-71
2022/03/26 02:23:35;;;;;;;14.50;8.23;;;;;;;3.93;45.70;95716.63;5051555;28;20036;-72
2022/03/26 02:26:00;;;;;;;16.67;8.55;;;;;;;3.89;45.37;95721.03;5052522;28;20403;-71
2022/03/26 02:28:26;;;;;;;14.05;8.25;;;;;;;3.86;45.64;95716.03;5052602;28;20079;-71
2022/03/26 02:30:51;;;;;;;16.93;8.47;;;;;;;3.53;45.53;95659.19;5052815;28;20032;-71
2022/03/26 02:33:16;;;;;;;18.15;8.32;;;;;;;3.79;46.08;95712.06;5051206;28;20085;-71
2022/03/26 02:35:42;;;;;;;18.02;8.75;;;;;;;3.78;46.19;95711.22;5034800;28;20056;-71
2022/03/26 02:38:09;;;;;;;13.35;8.38;;;;;;;3.76;47.05;95718.16;5052383;28;20033;-71
2022/03/26 02:40:34;;;;;;;15.10;7.75;;;;;;;3.70;46.40;95715.84;5051066;28;20033;-71
2022/03/26 02:43:00;;;;;;;17.83;8.93;;;;;;;3.75;46.34;95721.63;5052256;28;20036;-71
2022/03/26 02:45:25;;;;;;;15.60;8.15;;;;;;;3.73;47.27;95720.00;5034499;28;20025;-71
2022/03/26 02:47:51;;;;;;;15.95;7.72;;;;;;;3.62;46.57;95714.47;5051001;28;20035;-71
2022/03/26 02:50:18;;;;;;;15.05;8.43;;;;;;;3.56;46.64;95720.72;5034516;28;20029;-71
2022/03/26 02:52:48;;;;;;;14.73;7.82;;;;;;;3.51;46.53;95717.47;5050791;28;20527;-71
2022/03/26 02:55:13;;;;;;;16.58;8.23;;;;;;;3.51;46.42;95733.75;5034855;28;20032;-71
2022/03/26 02:57:39;;;;;;;16.27;8.20;;;;;;;3.54;46.48;95738.78;5034283;28;20037;-71
2022/03/26 03:00:05;;;;;;;14.32;8.82;;;;;;;3.59;46.18;95743.69;5050839;28;20032;-71
2022/03/26 03:02:31;;;;;;;20.83;10.32;;;;;;;3.64;46.82;95739.22;5050716;28;20483;-71
2022/03/26 03:04:56;;;;;;;18.17;10.32;;;;;;;3.60;46.15;95752.28;5033721;28;20031;-71
2022/03/26 03:07:21;;;;;;;20.33;11.32;;;;;;;3.54;46.94;95746.47;5050025;28;20055;-71
2022/03/26 03:09:47;;;;;;;25.00;11.30;;;;;;;3.38;47.12;95750.56;5035284;28;20032;-71
2022/03/26 03:12:13;;;;;;;22.75;11.23;;;;;;;3.20;47.50;95748.69;5030563;28;20045;-71
2022/03/26 03:14:38;;;;;;;23.20;11.80;;;;;;;3.21;48.19;95751.22;5030488;28;20032;-71
2022/03/26 03:17:04;;;;;;;22.13;11.07;;;;;;;3.10;48.34;95748.22;5031777;28;20033;-71
2022/03/26 03:19:29;;;;;;;19.67;10.52;;;;;;;3.02;48.38;95750.25;5030462;28;20052;-71
2022/03/26 03:21:54;;;;;;;17.88;9.98;;;;;;;2.99;47.67;95751.22;5013988;28;20042;-71
2022/03/26 03:24:21;;;;;;;14.77;8.35;;;;;;;2.95;47.87;95752.19;5013958;28;20087;-71
2022/03/26 03:26:46;;;;;;;18.15;9.43;;;;;;;2.83;48.13;95750.94;5031993;28;20494;-71
2022/03/26 03:29:12;;;;;;;27.85;12.75;;;;;;;2.72;49.04;95754.81;5030313;28;20034;-71
2022/03/26 03:31:38;;;;;;;33.08;15.55;;;;;;;2.66;49.49;95754.13;5031804;28;20026;-71
2022/03/26 03:34:04;;;;;;;27.73;12.73;;;;;;;2.61;49.36;95748.34;5030373;28;20029;-71
2022/03/26 03:36:30;;;;;;;22.73;11.52;;;;;;;2.66;49.11;95758.44;5031769;28;20032;-71
2022/03/26 03:38:55;;;;;;;16.05;9.40;;;;;;;2.53;49.42;95752.06;5031388;28;20084;-72
2022/03/26 03:41:20;;;;;;;27.90;14.38;;;;;;;2.59;50.02;95752.72;5031713;28;20025;-71
2022/03/26 03:43:46;;;;;;;22.58;12.57;;;;;;;2.47;49.53;95748.00;5013670;28;20095;-71
2022/03/26 03:46:12;;;;;;;19.15;9.82;;;;;;;2.56;49.13;95749.41;5030246;28;20083;-71
2022/03/26 03:48:38;;;;;;;14.38;8.45;;;;;;;2.61;49.26;95748.34;5030011;28;20049;-72
2022/03/26 03:51:03;;;;;;;16.48;8.57;;;;;;;2.59;49.29;95747.56;5030009;28;20025;-71
2022/03/26 03:53:29;;;;;;;19.13;8.98;;;;;;;2.53;49.15;95747.78;5029961;28;20033;-71
2022/03/26 03:55:54;;;;;;;20.73;8.73;;;;;;;2.49;49.53;95743.66;5031486;28;20033;-71
2022/03/26 03:58:20;;;;;;;25.35;9.27;;;;;;;2.43;48.79;95731.91;5013325;28;20037;-71
2022/03/26 04:00:45;;;;;;;16.20;8.30;;;;;;;2.59;49.35;95755.28;5029945;28;20021;-71
2022/03/26 04:03:11;;;;;;;17.60;8.07;;;;;;;2.65;48.88;95747.34;5031014;28;20038;-71
2022/03/26 04:05:36;;;;;;;19.02;8.60;;;;;;;2.69;49.37;95754.03;5029704;28;20025;-71
2022/03/26 04:08:02;;;;;;;17.25;8.40;;;;;;;2.71;49.19;95758.28;5031628;28;20056;-71
2022/03/26 04:10:27;;;;;;;18.98;9.32;;;;;;;2.67;49.33;95753.25;5033173;28;20104;-71
2022/03/26 04:12:53;;;;;;;23.55;8.77;;;;;;;2.62;49.62;95760.28;5050676;28;20091;-71
2022/03/26 04:15:18;;;;;;;14.65;8.88;;;;;;;2.50;50.47;95757.31;5033063;28;20028;-71
2022/03/26 04:17:43;;;;;;;14.85;8.57;;;;;;;2.53;50.66;95757.22;5049129;28;20033;-71
2022/03/26 04:20:10;;;;;;;16.42;8.23;;;;;;;2.55;50.03;95765.69;5049661;28;20044;-71
2022/03/26 04:22:36;;;;;;;20.35;8.93;;;;;;;2.53;50.17;95768.28;5049460;28;20048;-71
2022/03/26 04:25:02;;;;;;;14.10;8.70;;;;;;;2.46;50.27;95765.13;5050816;28;20033;-71
2022/03/26 04:27:27;;;;;;;15.63;8.35;;;;;;;2.43;50.85;95766.97;5049391;28;20033;-71
2022/03/26 04:29:53;;;;;;;18.90;8.93;;;;;;;2.46;50.74;95767.69;5050754;28;20536;-71
2022/03/26 04:32:18;;;;;;;16.13;8.48;;;;;;;2.51;50.85;95770.09;5049309;28;20454;-71
2022/03/26 04:34:43;;;;;;;19.50;9.93;;;;;;;2.54;51.05;95776.84;5016324;28;20028;-71
2022/03/26 04:37:09;;;;;;;17.23;8.93;;;;;;;2.49;51.15;95781.31;5050510;28;20468;-71
2022/03/26 04:39:34;;;;;;;13.77;8.45;;;;;;;2.46;51.38;95783.09;5050486;28;20025;-71
2022/03/26 04:42:00;;;;;;;14.43;8.82;;;;;;;2.31;51.71;95788.75;5032734;28;20032;-71
2022/03/26 04:44:25;;;;;;;15.73;9.75;;;;;;;2.24;51.71;95787.28;5049210;28;20017;-71
2022/03/26 04:46:51;;;;;;;15.85;9.48;;;;;;;2.23;51.99;95786.47;5049253;28;20511;-71
2022/03/26 04:49:16;;;;;;;16.52;9.27;;;;;;;2.24;51.20;95797.56;5049201;28;20025;-71
2022/03/26 04:51:42;;;;;;;16.58;8.23;;;;;;;2.33;50.97;95807.47;5032727;28;20044;-71
2022/03/26 04:54:07;;;;;;;17.05;8.68;;;;;;;2.41;51.36;95796.97;5050455;28;20033;-71
2022/03/26 04:56:32;;;;;;;18.25;8.65;;;;;;;2.64;50.45;95793.56;5032696;28;20040;-71
2022/03/26 04:58:58;;;;;;;15.73;9.07;;;;;;;2.74;50.37;95796.66;5049257;28;20549;-71
2022/03/26 05:01:23;;;;;;;17.92;8.43;;;;;;;2.82;49.96;95804.91;5032680;28;20033;-71
2022/03/26 05:03:49;;;;;;;16.35;9.60;;;;;;;2.80;49.36;95796.44;5032599;28;20540;-71
2022/03/26 05:06:15;;;;;;;16.70;8.63;;;;;;;2.89;49.59;95801.22;5032721;28;20032;-70
2022/03/26 05:08:40;;;;;;;86.57;31.25;;;;;;;2.99;49.50;95801.72;5028957;28;20026;-71
2022/03/26 05:11:06;;;;;;;22.48;12.70;;;;;;;3.00;49.59;95803.38;5030595;28;20033;-71
2022/03/26 05:13:31;;;;;;;33.90;15.85;;;;;;;2.89;49.68;95801.22;5030351;28;20108;-71
2022/03/26 05:15:57;;;;;;;35.85;16.88;;;;;;;3.04;50.02;95816.06;5012682;28;20048;-71
2022/03/26 05:18:22;;;;;;;43.92;28.48;;;;;;;3.06;49.56;95806.53;5028850;28;20046;-71
2022/03/26 05:20:48;;;;;;;44.00;25.45;;;;;;;3.74;48.53;95811.66;5030628;28;20033;-71
2022/03/26 05:23:13;;;;;;;36.15;22.85;;;;;;;4.40;46.97;95808.91;5030272;28;20121;-71
2022/03/26 05:25:39;;;;;;;29.55;18.90;;;;;;;5.27;44.01;95799.88;5029118;28;20056;-71
2022/03/26 05:28:05;;;;;;;30.33;17.67;;;;;;;5.96;42.30;95801.81;5030177;28;20034;-71
2022/03/26 05:30:30;;;;;;;27.15;16.05;;;;;;;6.67;41.16;95803.41;5033579;28;20029;-71
2022/03/26 05:32:56;;;;;;;35.47;16.60;;;;;;;7.36;39.36;95805.75;5033645;28;20056;-71
2022/03/26 05:35:21;;;;;;;28.38;14.07;;;;;;;7.63;39.43;95805.13;5032597;28;20030;-71
2022/03/26 05:37:48;;;;;;;35.10;18.15;;;;;;;7.69;38.77;95811.72;5026335;28;20127;-71
2022/03/26 05:40:16;;;;;;;35.83;19.17;;;;;;;7.29;39.33;95811.31;5019294;28;20037;-71
2022/03/26 05:42:42;;;;;;;33.47;20.08;;;;;;;6.84;40.21;95816.28;5053373;28;20025;-71
2022/03/26 05:45:08;;;;;;;27.33;16.02;;;;;;;6.57;41.12;95821.09;5052278;28;20138;-71
2022/03/26 05:47:34;;;;;;;29.02;16.75;;;;;;;6.59;41.09;95824.44;5035388;28;20033;-71
2022/03/26 05:50:00;;;;;;;26.55;15.30;;;;;;;6.25;41.67;95831.31;5035573;28;20041;-71
2022/03/26 05:52:25;;;;;;;27.92;16.90;;;;;;;6.26;41.97;95832.97;5035450;28;20024;-71
2022/03/26 05:54:51;;;;;;;30.35;16.83;;;;;;;6.48;41.58;95831.91;5052099;28;20029;-71
2022/03/26 05:57:18;;;;;;;31.85;16.48;;;;;;;6.66;40.86;95819.81;5041394;28;20083;-71
2022/03/26 05:59:44;;;;;;;28.90;15.50;;;;;;;6.72;41.36;95828.06;5043818;28;20419;-71
2022/03/26 06:02:12;;;;;;;30.52;17.52;;;;;;;6.77;40.68;95833.03;5015678;28;20033;-71
2022/03/26 06:04:37;;;;;;;30.40;17.27;;;;;;;6.91;40.53;95834.88;5033204;28;20454;-71
2022/03/26 06:07:03;;;;;;;29.25;15.32;;;;;;;6.80;40.69;95834.56;5031897;28;20045;-71
2022/03/26 06:09:29;;;;;;;25.20;14.15;;;;;;;6.97;40.60;95829.38;5044496;28;20084;-71
2022/03/26 06:11:55;;;;;;;27.13;16.00;;;;;;;7.42;40.11;95820.09;5051612;28;20060;-71
2022/03/26 06:14:21;;;;;;;25.70;14.63;;;;;;;7.59;40.21;95827.75;5018832;28;20032;-71
2022/03/26 06:16:47;;;;;;;25.42;13.40;;;;;;;7.10;40.65;95833.00;5051418;28;20021;-71
2022/03/26 06:19:16;;;;;;;22.50;12.90;;;;;;;7.19;40.22;95830.81;5034989;28;20063;-71
2022/03/26 06:21:43;;;;;;;21.30;13.35;;;;;;;6.61;41.41;95832.13;5031583;28;20045;-71
2022/03/26 06:24:08;;;;;;;24.42;12.38;;;;;;;6.62;42.07;95834.63;5031454;28;20037;-71
2022/03/26 06:26:36;;;;;;;16.88;11.60;;;;;;;6.66;41.56;95833.56;5030299;28;20063;-71
2022/03/26 06:29:02;;;;;;;20.65;11.63;;;;;;;6.49;42.02;95839.59;5031315;28;20021;-71
2022/03/26 06:31:28;;;;;;;19.60;11.70;;;;;;;6.70;41.93;95836.81;5015047;28;20041;-71
2022/03/26 06:33:53;;;;;;;18.70;11.57;;;;;;;7.24;40.53;95834.00;5037277;28;20037;-71
2022/03/26 06:36:19;;;;;;;21.63;11.18;;;;;;;7.58;39.63;95841.63;5032935;28;20476;-70
2022/03/26 06:38:45;;;;;;;26.33;12.05;;;;;;;7.83;39.50;95845.44;5039747;28;20100;-72
2022/03/26 06:41:13;;;;;;;23.27;11.70;;;;;;;8.23;38.34;95853.53;5038064;28;20030;-71
2022/03/26 06:43:39;;;;;;;19.63;11.65;;;;;;;8.37;37.49;95848.41;5041557;28;20021;-71
2022/03/26 06:46:05;;;;;;;20.42;11.73;;;;;;;8.55;37.25;95853.47;5039671;28;20033;-71
2022/03/26 06:48:31;;;;;;;18.67;11.88;;;;;;;8.54;37.22;95846.63;5036910;28;20415;-71
2022/03/26 06:50:57;;;;;;;24.20;14.25;;;;;;;8.63;37.84;95853.84;5030756;28;20190;-71
2022/03/26 06:53:23;;;;;;;25.63;12.02;;;;;;;8.83;36.81;95858.72;5037059;28;20040;-71
2022/03/26 06:55:49;;;;;;;18.05;10.98;;;;;;;8.86;36.73;95863.69;5024074;28;20045;-71
2022/03/26 06:58:14;;;;;;;20.25;11.98;;;;;;;9.04;36.67;95860.94;5038483;28;20024;-71
2022/03/26 07:00:40;;;;;;;20.55;10.88;;;;;;;9.03;36.35;95861.88;5008251;28;20030;-71
2022/03/26 07:03:06;;;;;;;21.00;11.18;;;;;;;8.97;36.50;95859.63;5024503;28;20037;-70
2022/03/26 07:05:31;;;;;;;27.52;12.38;;;;;;;9.08;35.93;95859.81;5037870;28;20065;-71
2022/03/26 07:07:57;;;;;;;22.13;11.35;;;;;;;8.78;36.58;95871.09;5033283;28;20500;-72
2022/03/26 07:10:23;;;;;;;22.15;11.15;;;;;;;8.52;36.99;95874.34;5034105;28;20136;-71
2022/03/26 07:12:49;;;;;;;22.55;12.40;;;;;;;8.83;36.69;95871.66;5037217;28;20037;-74
2022/03/26 07:15:15;;;;;;;24.80;11.60;;;;;;;9.01;36.43;95869.72;5039245;28;20495;-69
2022/03/26 07:17:44;;;;;;;23.63;13.60;;;;;;;9.21;36.19;95876.28;5032308;28;20026;-71
2022/03/26 07:20:11;;;;;;;17.98;10.77;;;;;;;9.43;35.82;95870.63;5022836;28;20030;-69
2022/03/26 07:22:36;;;;;;;23.85;14.60;;;;;;;9.52;35.15;95862.28;5032876;28;20033;-73
2022/03/26 07:25:04;;;;;;;25.65;14.85;;;;;;;9.72;35.31;95874.03;5048013;28;20036;-70
2022/03/26 07:27:33;;;;;;;21.20;11.52;;;;;;;9.66;35.23;95874.38;5043474;28;20021;-71
2022/03/26 07:29:58;;;;;;;24.83;11.38;;;;;;;9.70;35.00;95875.06;5032207;28;20041;-68
2022/03/26 07:32:25;;;;;;;23.88;15.93;;;;;;;9.78;35.49;95871.03;5051181;28;20029;-70
2022/03/26 07:34:52;;;;;;;24.38;13.02;;;;;;;9.90;34.77;95872.03;5006167;28;20033;-69
2022/03/26 07:37:17;;;;;;;19.65;11.70;;;;;;;9.76;35.03;95872.91;5028804;28;20446;-72
2022/03/26 07:39:43;;;;;;;25.27;11.90;;;;;;;9.70;35.77;95875.88;5046577;28;20124;-69
2022/03/26 07:42:09;;;;;;;17.30;11.35;;;;;;;9.97;35.24;95878.50;5047335;28;20100;-69
2022/03/26 07:44:34;;;;;;;20.40;11.75;;;;;;;10.06;34.48;95877.91;5045565;28;20054;-68
2022/03/26 07:47:00;;;;;;;17.80;12.00;;;;;;;9.87;34.83;95871.41;5033895;28;20112;-68
2022/03/26 07:49:26;;;;;;;23.05;12.10;;;;;;;9.89;34.82;95865.19;5038173;28;20027;-75
2022/03/26 07:51:52;;;;;;;23.35;10.90;;;;;;;10.12;34.59;95883.66;5041687;28;20091;-74
2022/03/26 07:54:17;;;;;;;17.80;11.20;;;;;;;10.26;33.53;95857.63;5032463;28;20028;-71
2022/03/26 07:56:43;;;;;;;20.65;10.95;;;;;;;10.41;33.17;95876.59;5047418;28;20052;-71
2022/03/26 07:59:09;;;;;;;19.25;11.13;;;;;;;10.54;31.94;95876.63;5047844;28;20060;-69
2022/03/26 08:01:34;;;;;;;16.35;10.40;;;;;;;10.65;32.04;95874.16;5048060;28;20037;-70
2022/03/26 08:04:00;;;;;;;18.27;11.50;;;;;;;10.73;31.26;95874.47;5032994;28;20487;-72
2022/03/26 08:06:26;;;;;;;15.90;10.85;;;;;;;10.83;30.30;95870.31;5031839;28;20040;-68
2022/03/26 08:08:51;;;;;;;18.65;11.07;;;;;;;10.77;30.62;95869.91;5050646;28;20025;-68
2022/03/26 08:11:17;;;;;;;18.63;10.70;;;;;;;10.80;31.32;95865.31;5049097;28;20037;-68
2022/03/26 08:13:43;;;;;;;22.73;11.63;;;;;;;10.71;31.00;95863.34;5032648;28;20037;-68
2022/03/26 08:16:09;;;;;;;22.38;14.43;;;;;;;10.89;31.18;95866.47;5048730;28;20056;-69
2022/03/26 08:18:35;;;;;;;21.08;15.13;;;;;;;11.03;30.53;95869.00;5039002;28;20033;-68
2022/03/26 08:21:01;;;;;;;23.38;14.10;;;;;;;11.03;30.30;95853.38;5040725;28;20475;-72
2022/03/26 08:23:28;;;;;;;20.40;14.90;;;;;;;11.16;29.41;95861.16;5049211;28;20039;-70
2022/03/26 08:28:37;;;;;;;21.20;12.48;;;;;;;11.34;31.21;95857.31;5030833;28;20036;-70
2022/03/26 08:31:03;;;;;;;23.95;15.77;;;;;;;11.49;30.41;95854.56;5035466;28;20037;-69
2022/03/26 08:33:29;;;;;;;32.17;18.30;;;;;;;11.65;30.24;95860.38;5028804;28;20421;-72
2022/03/26 08:35:54;;;;;;;20.35;12.73;;;;;;;11.78;29.25;95855.09;5037768;28;20036;-72
2022/03/26 08:38:20;;;;;;;22.38;12.60;;;;;;;11.79;29.54;95848.97;5030295;28;20029;-74
2022/03/26 08:40:46;;;;;;;21.10;10.50;;;;;;;11.86;28.92;95852.81;5037380;28;20034;-69
2022/03/26 08:43:12;;;;;;;23.95;13.73;;;;;;;11.94;28.49;95845.28;5031199;28;20034;-70
2022/03/26 08:45:40;;;;;;;17.67;10.98;;;;;;;11.94;27.91;95842.69;5014556;28;20034;-69
2022/03/26 08:48:06;;;;;;;15.35;10.48;;;;;;;11.82;28.18;95838.34;5034377;28;20475;-72
2022/03/26 08:50:32;;;;;;;17.92;10.10;;;;;;;11.76;28.36;95828.38;5013626;28;20496;-74
2022/03/26 08:52:57;;;;;;;25.40;16.13;;;;;;;11.91;28.05;95822.09;5030109;28;20033;-77
2022/03/26 08:55:24;;;;;;;14.98;10.63;;;;;;;11.93;26.88;95824.59;5018897;28;20053;-76
2022/03/26 08:57:49;;;;;;;34.70;20.70;;;;;;;12.01;27.61;95830.09;5011983;28;20045;-76
2022/03/26 09:00:17;;;;;;;25.58;16.95;;;;;;;12.24;26.76;95825.78;5031918;28;20037;-75
2022/03/26 09:02:44;;;;;;;18.00;11.68;;;;;;;12.38;26.12;95833.41;5030106;28;20068;-70
2022/03/26 09:05:12;;;;;;;22.55;11.60;;;;;;;12.52;25.86;95822.78;5037254;28;20044;-73
2022/03/26 09:07:38;;;;;;;17.52;9.52;;;;;;;12.65;25.05;95827.94;5017487;28;20468;-70
2022/03/26 09:10:04;;;;;;;21.98;9.70;;;;;;;12.65;24.87;95817.50;5051671;28;20036;-71
2022/03/26 09:12:29;;;;;;;18.25;11.32;;;;;;;12.74;25.55;95823.81;5053271;28;20033;-71
2022/03/26 09:14:55;;;;;;;16.75;9.82;;;;;;;12.63;25.35;95815.97;5039608;28;20029;-71
2022/03/26 09:17:20;;;;;;;16.23;10.30;;;;;;;12.56;26.36;95801.72;5052482;28;20048;-72
2022/03/26 09:19:45;;;;;;;18.55;11.23;;;;;;;12.71;25.56;95809.22;5053419;28;20183;-71
2022/03/26 09:22:11;;;;;;;19.98;13.63;;;;;;;12.77;25.62;95801.88;5031223;28;20079;-71
2022/03/26 09:24:38;;;;;;;23.65;12.73;;;;;;;12.86;26.09;95802.00;5025765;28;20018;-69
2022/03/26 09:27:03;;;;;;;19.63;12.98;;;;;;;12.96;25.90;95805.56;5039734;28;20522;-69
2022/03/26 09:29:29;;;;;;;21.17;11.05;;;;;;;13.16;26.94;95808.44;5025532;28;20033;-69
2022/03/26 09:31:55;;;;;;;17.77;10.88;;;;;;;13.29;25.80;95809.19;5039542;28;20056;-69
2022/03/26 09:34:20;;;;;;;19.42;12.68;;;;;;;13.32;25.74;95798.50;5042292;28;20496;-71
2022/03/26 09:36:47;;;;;;;55.72;26.38;;;;;;;13.28;25.67;95799.66;5038840;28;20483;-69
2022/03/26 09:39:12;;;;;;;22.20;13.07;;;;;;;13.16;25.93;95798.81;5038596;28;20127;-69
2022/03/26 09:41:38;;;;;;;24.80;13.88;;;;;;;13.26;26.24;95785.94;5030710;28;20034;-69
2022/03/26 09:44:03;;;;;;;22.70;11.90;;;;;;;13.40;26.10;95792.69;5035121;28;20558;-69
2022/03/26 09:46:29;;;;;;;24.10;12.80;;;;;;;13.46;25.82;95786.16;5045983;28;20029;-69
2022/03/26 09:48:54;;;;;;;26.42;14.23;;;;;;;13.53;25.95;95785.53;5052645;28;20029;-69
2022/03/26 09:51:21;;;;;;;27.00;15.43;;;;;;;13.69;25.56;95787.75;5052221;28;20044;-69
2022/03/26 09:53:50;;;;;;;23.70;13.18;;;;;;;13.70;24.91;95781.56;5052313;28;20040;-69
2022/03/26 09:56:16;;;;;;;26.88;14.07;;;;;;;13.76;25.71;95775.03;5052256;28;20032;-69
2022/03/26 09:58:41;;;;;;;23.90;14.20;;;;;;;13.83;24.97;95774.41;5035288;28;20389;-69
2022/03/26 10:01:07;;;;;;;20.52;13.27;;;;;;;13.81;25.10;95768.47;5051838;28;20037;-69
2022/03/26 10:03:33;;;;;;;30.00;17.48;;;;;;;13.95;26.03;95775.19;5053130;28;20036;-69
2022/03/26 10:06:03;;;;;;;24.00;16.92;;;;;;;14.06;26.17;95771.72;5051849;28;20040;-69
2022/03/26 10:08:28;;;;;;;22.38;15.52;;;;;;;14.11;25.64;95769.56;5035395;28;20043;-69
2022/03/26 10:10:54;;;;;;;27.27;16.02;;;;;;;14.26;25.50;95772.69;5035343;28;20033;-69
2022/03/26 10:13:36;;;;;;;23.85;15.63;;;;;;;14.26;25.66;95760.47;5034944;28;20036;-69
2022/03/26 10:16:07;;;;;;;23.08;16.27;;;;;;;14.36;24.84;95771.00;5035348;28;20110;-69
2022/03/26 10:18:43;;;;;;;25.05;15.13;;;;;;;14.37;24.99;95770.03;5051640;28;20079;-69
2022/03/26 10:21:11;;;;;;;19.50;14.00;;;;;;;14.33;24.62;95757.34;5035266;28;20037;-69
2022/03/26 10:23:36;;;;;;;20.70;14.27;;;;;;;14.24;25.53;95757.16;5051551;28;20029;-69
2022/03/26 10:26:18;;;;;;;25.02;15.05;;;;;;;14.44;26.12;95757.28;5051615;28;20040;-69
2022/03/26 10:28:49;;;;;;;22.08;14.77;;;;;;;14.55;25.12;95759.06;5051596;28;20525;-69
2022/03/26 10:34:07;;;;;;;23.83;16.00;;;;;;;14.58;25.45;95741.31;5037658;28;20604;-69
2022/03/26 10:36:43;;;;;;;21.95;16.50;;;;;;;14.30;24.98;95737.53;5051562;28;20037;-69
2022/03/26 10:39:20;;;;;;;22.60;15.07;;;;;;;14.33;25.82;95731.22;5051391;28;20028;-69
2022/03/26 10:41:46;;;;;;;27.40;15.15;;;;;;;14.37;25.31;95730.81;5035136;28;20098;-69
2022/03/26 10:44:16;;;;;;;21.83;15.18;;;;;;;14.37;26.02;95727.38;5034664;28;20096;-71
2022/03/26 10:46:52;;;;;;;26.42;15.45;;;;;;;14.46;25.57;95721.41;5051226;28;20087;-69
2022/03/26 10:49:38;;;;;;;23.17;15.57;;;;;;;14.41;25.73;95716.56;5051187;28;20052;-69
2022/03/26 10:52:16;;;;;;;22.45;14.73;;;;;;;14.57;26.30;95734.44;5034848;28;20045;-69
2022/03/26 10:54:42;;;;;;;27.67;16.67;;;;;;;14.57;26.29;95725.72;5017826;28;20469;-69
2022/03/26 10:57:08;;;;;;;26.27;16.00;;;;;;;14.56;25.87;95709.22;5034302;28;20029;-69
2022/03/26 10:59:33;;;;;;;22.33;14.43;;;;;;;14.59;26.14;95716.81;5050798;28;20120;-69
2022/03/26 11:01:58;;;;;;;21.92;13.90;;;;;;;14.63;26.06;95709.56;5050852;28;20025;-69
2022/03/26 11:04:30;;;;;;;23.00;13.65;;;;;;;14.69;26.30;95706.41;5034154;28;20025;-69
2022/03/26 11:06:56;;;;;;;20.40;13.15;;;;;;;14.67;26.59;95696.06;5050750;28;20033;-69
2022/03/26 11:09:21;;;;;;;20.10;12.65;;;;;;;14.88;25.69;95703.06;5050729;28;20043;-69
2022/03/26 11:11:50;;;;;;;19.13;11.90;;;;;;;14.80;25.47;95695.03;5051664;28;20144;-69
2022/03/26 11:14:22;;;;;;;20.05;11.23;;;;;;;14.87;26.22;95698.75;5050566;28;20029;-69
2022/03/26 11:16:56;;;;;;;23.08;12.77;;;;;;;14.97;26.35;95690.00;5050735;28;20044;-69
2022/03/26 11:19:40;;;;;;;20.73;12.57;;;;;;;15.08;26.08;95694.31;5051531;28;20076;-69
2022/03/26 11:22:43;;;;;;;24.33;13.07;;;;;;;15.12;25.51;95687.81;5034560;28;20037;-69
2022/03/26 11:25:15;;;;;;;19.15;12.25;;;;;;;15.08;25.43;95690.88;5050342;28;20041;-69
2022/03/26 11:27:55;;;;;;;23.00;12.63;;;;;;;15.12;25.54;95685.22;5050748;28;20036;-69